createdAt,value
2019-05-18T00:01:42.710Z,94.80
2019-05-18T00:04:11.311Z,94.70
2019-05-18T00:06:39.870Z,94.80
2019-05-18T00:09:08.433Z,94.80
2019-05-18T00:11:37.043Z,94.70
2019-05-18T00:14:05.757Z,94.90
2019-05-18T00:16:34.241Z,94.90
2019-05-18T00:19:02.801Z,95.10
2019-05-18T00:21:31.278Z,94.90
2019-05-18T00:23:59.833Z,94.90
2019-05-18T00:26:28.357Z,94.80
2019-05-18T00:28:56.953Z,94.80
2019-05-18T00:31:25.493Z,94.90
2019-05-18T00:33:54.095Z,94.90
2019-05-18T00:36:22.617Z,95.00
2019-05-18T00:38:51.127Z,95.00
2019-05-18T00:41:19.642Z,94.80
2019-05-18T00:43:48.245Z,94.90
2019-05-18T00:46:16.740Z,94.90
2019-05-18T00:48:45.420Z,95.10
2019-05-18T00:51:14.098Z,94.90
2019-05-18T00:53:44.278Z,95.10
2019-05-18T00:56:12.877Z,94.90
2019-05-18T00:58:41.589Z,95.00
2019-05-18T01:01:10.088Z,94.90
2019-05-18T01:03:38.694Z,95.00
2019-05-18T01:06:07.309Z,94.90
2019-05-18T01:08:35.883Z,94.80
2019-05-18T01:11:04.546Z,94.80
2019-05-18T01:13:33.361Z,94.90
2019-05-18T01:16:01.906Z,94.90
2019-05-18T01:18:30.411Z,94.90
2019-05-18T01:20:59.249Z,94.90
2019-05-18T01:23:28.019Z,95.00
2019-05-18T01:25:56.540Z,95.00
2019-05-18T01:28:25.261Z,94.90
2019-05-18T01:30:53.924Z,94.90
2019-05-18T01:33:22.627Z,95.10
2019-05-18T01:35:51.247Z,95.00
2019-05-18T01:38:22.178Z,95.50
2019-05-18T01:40:51.056Z,95.00
2019-05-18T01:43:19.543Z,95.20
2019-05-18T01:45:48.295Z,95.10
2019-05-18T01:48:16.875Z,95.10
2019-05-18T01:50:45.539Z,95.10
2019-05-18T01:53:14.011Z,95.20
2019-05-18T01:55:42.868Z,95.10
2019-05-18T01:58:11.519Z,95.10
2019-05-18T02:00:40.073Z,95.10
2019-05-18T02:03:08.763Z,95.20
2019-05-18T02:05:37.674Z,95.30
2019-05-18T02:08:06.278Z,95.30
2019-05-18T02:10:35.077Z,95.30
2019-05-18T02:13:03.608Z,95.20
2019-05-18T02:15:32.287Z,95.40
2019-05-18T02:18:00.907Z,95.50
2019-05-18T02:20:29.890Z,95.40
2019-05-18T02:22:58.364Z,95.40
2019-05-18T02:25:26.940Z,95.30
2019-05-18T02:27:55.590Z,95.40
2019-05-18T02:30:24.327Z,95.80
2019-05-18T02:32:52.934Z,95.50
2019-05-18T02:35:21.624Z,95.50
2019-05-18T02:37:50.176Z,95.50
2019-05-18T02:40:18.937Z,95.60
2019-05-18T02:42:47.520Z,95.70
2019-05-18T02:45:16.332Z,95.70
2019-05-18T02:47:44.954Z,95.70
2019-05-18T02:50:13.811Z,95.80
2019-05-18T02:52:42.391Z,95.90
2019-05-18T02:55:11.086Z,95.80
2019-05-18T02:57:39.766Z,95.80
2019-05-18T03:00:11.576Z,95.80
2019-05-18T03:02:40.196Z,95.90
2019-05-18T03:05:09.187Z,95.90
2019-05-18T03:07:37.705Z,95.90
2019-05-18T03:10:08.046Z,96.30
2019-05-18T03:12:36.707Z,96.00
2019-05-18T03:15:06.888Z,96.00
2019-05-18T03:17:35.585Z,96.00
2019-05-18T03:20:06.854Z,95.90
2019-05-18T03:22:35.423Z,95.90
2019-05-18T03:25:05.772Z,95.90
2019-05-18T03:27:34.321Z,96.00
2019-05-18T03:30:04.142Z,96.00
2019-05-18T03:32:32.778Z,95.90
2019-05-18T03:35:01.488Z,95.90
2019-05-18T03:37:30.474Z,95.90
2019-05-18T03:39:59.095Z,95.90
2019-05-18T03:42:28.106Z,96.00
2019-05-18T03:44:56.695Z,95.90
2019-05-18T03:47:25.206Z,95.90
2019-05-18T03:49:54.409Z,96.00
2019-05-18T03:52:23.036Z,96.00
2019-05-18T03:54:51.921Z,96.00
2019-05-18T03:57:20.505Z,95.90
2019-05-18T03:59:49.167Z,95.70
2019-05-18T04:02:17.877Z,95.90
2019-05-18T04:04:46.464Z,95.70
2019-05-18T04:07:14.998Z,95.70
2019-05-18T04:09:43.587Z,95.70
2019-05-18T04:12:12.379Z,95.70
2019-05-18T04:14:41.039Z,95.60
2019-05-18T04:17:11.297Z,95.60
2019-05-18T04:19:46.501Z,95.50
2019-05-18T04:22:10.234Z,95.40
2019-05-18T04:24:38.818Z,95.40
2019-05-18T04:27:07.465Z,95.20
2019-05-18T04:29:36.224Z,95.20
2019-05-18T04:32:05.103Z,95.10
2019-05-18T04:34:33.629Z,95.00
2019-05-18T04:37:02.156Z,95.10
2019-05-18T04:39:30.812Z,94.90
2019-05-18T04:41:59.498Z,94.80
2019-05-18T04:44:29.101Z,95.20
2019-05-18T04:46:57.690Z,94.50
2019-05-18T04:49:26.320Z,94.30
2019-05-18T04:51:54.848Z,94.20
2019-05-18T04:54:23.394Z,94.10
2019-05-18T04:56:52.086Z,93.70
2019-05-18T04:59:20.766Z,93.40
2019-05-18T05:01:49.430Z,93.30
2019-05-18T05:04:18.069Z,93.30
2019-05-18T05:06:46.588Z,92.90
2019-05-18T05:09:15.137Z,92.70
2019-05-18T05:11:43.747Z,92.80
2019-05-18T05:14:13.296Z,92.90
2019-05-18T05:16:43.408Z,93.00
2019-05-18T05:19:11.935Z,92.90
2019-05-18T05:21:40.487Z,92.80
2019-05-18T05:24:08.981Z,92.80
2019-05-18T05:26:39.459Z,92.90
2019-05-18T05:29:07.803Z,92.80
2019-05-18T05:31:36.437Z,92.60
2019-05-18T05:34:05.127Z,92.70
2019-05-18T05:36:33.707Z,92.70
2019-05-18T05:39:02.234Z,92.60
2019-05-18T05:41:30.828Z,92.50
2019-05-18T05:43:59.357Z,92.30
2019-05-18T05:46:27.919Z,91.80
2019-05-18T05:48:56.386Z,90.90
2019-05-18T05:51:24.931Z,90.00
2019-05-18T05:53:53.606Z,89.10
2019-05-18T05:56:22.264Z,88.20
2019-05-18T05:58:50.744Z,88.40
2019-05-18T06:01:19.243Z,85.10
2019-05-18T06:03:47.782Z,81.00
2019-05-18T06:06:16.568Z,78.30
2019-05-18T06:08:45.054Z,76.50
2019-05-18T06:11:13.661Z,72.20
2019-05-18T06:13:42.179Z,68.40
2019-05-18T06:16:11.484Z,67.00
2019-05-18T06:18:40.120Z,69.60
2019-05-18T06:21:09.216Z,70.20
2019-05-18T06:23:37.773Z,68.50
2019-05-18T06:26:06.363Z,68.10
2019-05-18T06:28:34.933Z,68.50
2019-05-18T06:31:03.737Z,69.90
2019-05-18T06:33:32.210Z,70.10
2019-05-18T06:36:01.113Z,70.90
2019-05-18T06:38:31.829Z,69.40
2019-05-18T06:41:00.378Z,65.30
2019-05-18T06:43:29.199Z,61.60
2019-05-18T06:45:57.686Z,60.00
2019-05-18T06:48:26.231Z,59.00
2019-05-18T06:51:06.798Z,58.70
2019-05-18T06:53:27.903Z,61.40
2019-05-18T06:55:56.944Z,60.30
2019-05-18T06:58:26.441Z,59.00
2019-05-18T07:00:55.156Z,57.70
2019-05-18T07:03:23.871Z,57.10
2019-05-18T07:05:53.415Z,56.00
2019-05-18T07:08:22.084Z,53.30
2019-05-18T07:10:50.773Z,53.30
2019-05-18T07:13:19.327Z,54.80
2019-05-18T07:15:47.803Z,57.30
2019-05-18T07:18:16.448Z,59.40
2019-05-18T07:20:44.968Z,62.00
2019-05-18T07:23:29.046Z,61.20
2019-05-18T07:25:57.607Z,60.00
2019-05-18T07:28:26.065Z,59.10
2019-05-18T07:30:54.531Z,57.00
2019-05-18T07:33:23.187Z,54.40
2019-05-18T07:35:51.786Z,51.50
2019-05-18T07:38:20.278Z,51.60
2019-05-18T07:40:49.008Z,50.40
2019-05-18T07:43:17.577Z,50.40
2019-05-18T07:45:46.247Z,51.60
2019-05-18T07:48:16.410Z,54.20
2019-05-18T07:50:45.045Z,53.90
2019-05-18T07:53:13.615Z,51.90
2019-05-18T07:55:42.235Z,51.50
2019-05-18T07:58:10.795Z,50.70
2019-05-18T08:00:39.582Z,49.90
2019-05-18T08:03:26.167Z,47.30
2019-05-18T08:05:54.698Z,46.30
2019-05-18T08:08:23.489Z,47.80
2019-05-18T08:10:52.044Z,47.80
2019-05-18T08:13:20.599Z,47.60
2019-05-18T08:15:49.328Z,48.60
2019-05-18T08:18:17.910Z,50.00
2019-05-18T08:20:46.509Z,50.50
2019-05-18T08:23:15.007Z,50.20
2019-05-18T08:25:43.650Z,48.40
2019-05-18T08:28:12.252Z,48.30
2019-05-18T08:30:40.805Z,46.80
2019-05-18T08:33:09.364Z,47.70
2019-05-18T08:35:37.971Z,46.10
2019-05-18T08:38:06.464Z,47.60
2019-05-18T08:40:34.987Z,48.80
2019-05-18T08:43:03.515Z,49.20
2019-05-18T08:45:31.989Z,51.20
2019-05-18T08:48:02.608Z,54.80
2019-05-18T08:50:31.114Z,56.90
2019-05-18T08:52:59.878Z,58.40
2019-05-18T08:55:28.438Z,57.10
2019-05-18T08:57:56.982Z,54.10
2019-05-18T09:00:25.522Z,56.90
2019-05-18T09:02:54.460Z,56.70
2019-05-18T09:05:23.025Z,54.80
2019-05-18T09:07:51.608Z,52.60
2019-05-18T09:10:20.212Z,50.70
2019-05-18T09:12:52.744Z,48.50
2019-05-18T09:15:21.641Z,47.60
2019-05-18T09:17:50.212Z,47.70
2019-05-18T09:20:19.149Z,48.70
2019-05-18T09:22:47.776Z,48.60
2019-05-18T09:25:19.251Z,49.70
2019-05-18T09:27:47.984Z,49.00
2019-05-18T09:30:16.780Z,51.30
2019-05-18T09:32:45.678Z,52.50
2019-05-18T09:35:14.747Z,53.20
2019-05-18T09:37:43.474Z,51.60
2019-05-18T09:40:12.518Z,51.00
2019-05-18T09:42:41.340Z,52.20
2019-05-18T09:45:14.153Z,54.20
2019-05-18T09:47:42.707Z,55.10
2019-05-18T09:50:12.869Z,55.90
2019-05-18T09:52:45.246Z,56.80
2019-05-18T09:55:12.194Z,56.60
2019-05-18T09:57:40.877Z,54.80
2019-05-18T10:00:11.394Z,54.10
2019-05-18T10:02:40.025Z,52.80
2019-05-18T10:05:08.800Z,53.70
2019-05-18T10:07:37.345Z,52.70
2019-05-18T10:10:07.983Z,53.00
2019-05-18T10:12:36.486Z,53.00
2019-05-18T10:15:08.093Z,52.60
2019-05-18T10:17:36.551Z,55.00
2019-05-18T10:20:08.997Z,56.10
2019-05-18T10:22:51.248Z,54.60
2019-05-18T10:25:08.460Z,54.60
2019-05-18T10:27:36.925Z,53.90
2019-05-18T10:30:07.916Z,52.70
2019-05-18T10:32:37.647Z,54.80
2019-05-18T10:35:07.783Z,54.80
2019-05-18T10:37:36.491Z,54.80
2019-05-18T10:40:08.671Z,54.40
2019-05-18T10:42:37.330Z,53.80
2019-05-18T10:45:09.256Z,55.50
2019-05-18T10:47:37.923Z,56.50
2019-05-18T10:50:07.428Z,57.10
2019-05-18T10:52:35.913Z,57.70
2019-05-18T10:55:08.937Z,55.70
2019-05-18T10:57:37.487Z,54.20
2019-05-18T11:00:08.710Z,52.90
2019-05-18T11:02:37.300Z,51.80
2019-05-18T11:05:09.214Z,51.60
2019-05-18T11:07:37.901Z,52.50
2019-05-18T11:10:10.620Z,52.70
2019-05-18T11:12:39.411Z,51.90
2019-05-18T11:15:10.128Z,52.10
2019-05-18T11:17:38.797Z,52.60
2019-05-18T11:20:09.413Z,52.00
2019-05-18T11:22:38.859Z,51.90
2019-05-18T11:25:08.550Z,51.80
2019-05-18T11:27:37.134Z,53.70
2019-05-18T11:30:10.760Z,55.20
2019-05-18T11:32:39.286Z,56.70
2019-05-18T11:35:08.796Z,58.80
2019-05-18T11:37:37.352Z,60.60
2019-05-18T11:40:10.685Z,59.30
2019-05-18T11:42:40.971Z,59.00
2019-05-18T11:45:12.513Z,59.50
2019-05-18T11:47:41.263Z,58.60
2019-05-18T11:50:11.187Z,59.80
2019-05-18T11:52:39.977Z,60.60
2019-05-18T11:55:09.191Z,60.10
2019-05-18T11:57:37.952Z,60.60
2019-05-18T12:00:08.899Z,61.20
2019-05-18T12:02:37.481Z,62.40
2019-05-18T12:05:07.425Z,62.10
2019-05-18T12:07:40.628Z,62.80
2019-05-18T12:10:09.811Z,63.00
2019-05-18T12:12:41.551Z,63.60
2019-05-18T12:15:12.551Z,62.60
2019-05-18T12:17:41.092Z,59.90
2019-05-18T12:20:10.408Z,60.10
2019-05-18T12:22:40.733Z,59.80
2019-05-18T12:25:09.645Z,59.60
2019-05-18T12:27:38.324Z,59.30
2019-05-18T12:30:09.046Z,59.10
2019-05-18T12:32:37.538Z,59.60
2019-05-18T12:35:08.205Z,59.80
2019-05-18T12:37:36.905Z,59.70
2019-05-18T12:40:07.554Z,59.20
2019-05-18T12:42:43.557Z,59.10
2019-05-18T12:45:12.674Z,59.60
2019-05-18T12:47:41.167Z,59.30
2019-05-18T12:50:11.900Z,59.60
2019-05-18T12:52:40.427Z,60.20
2019-05-18T12:55:15.812Z,59.80
2019-05-18T12:57:39.944Z,60.80
2019-05-18T13:00:19.804Z,61.40
2019-05-18T13:02:45.832Z,60.90
2019-05-18T13:05:14.444Z,61.30
2019-05-18T13:07:42.973Z,61.60
2019-05-18T13:10:12.719Z,60.60
2019-05-18T13:12:43.950Z,59.80
2019-05-18T13:15:13.414Z,61.10
2019-05-18T13:17:42.120Z,58.80
2019-05-18T13:20:13.718Z,58.90
2019-05-18T13:22:42.463Z,59.00
2019-05-18T13:25:15.483Z,59.20
2019-05-18T13:27:43.976Z,58.70
2019-05-18T13:30:13.557Z,59.00
2019-05-18T13:32:42.128Z,59.60
2019-05-18T13:35:11.106Z,58.60
2019-05-18T13:37:39.684Z,58.90
2019-05-18T13:40:09.697Z,58.60
2019-05-18T13:42:38.239Z,58.90
2019-05-18T13:45:13.155Z,58.70
2019-05-18T13:47:41.653Z,58.80
2019-05-18T13:50:10.481Z,59.10
2019-05-18T13:52:39.094Z,58.50
2019-05-18T13:55:09.070Z,58.20
2019-05-18T13:57:37.713Z,58.40
2019-05-18T14:00:07.706Z,59.10
2019-05-18T14:02:36.191Z,60.00
2019-05-18T14:05:06.305Z,59.40
2019-05-18T14:07:34.870Z,59.50
2019-05-18T14:10:04.724Z,59.10
2019-05-18T14:12:33.210Z,58.90
2019-05-18T14:15:01.819Z,58.80
2019-05-18T14:17:30.471Z,58.30
2019-05-18T14:19:59.034Z,58.20
2019-05-18T14:22:27.719Z,57.90
2019-05-18T14:24:56.260Z,57.70
2019-05-18T14:27:24.951Z,58.00
2019-05-18T14:29:53.542Z,57.40
2019-05-18T14:32:22.184Z,57.20
2019-05-18T14:34:50.888Z,57.40
2019-05-18T14:37:19.428Z,57.40
2019-05-18T14:39:48.012Z,57.20
2019-05-18T14:42:16.719Z,57.50
2019-05-18T14:44:45.418Z,58.00
2019-05-18T14:47:14.058Z,58.50
2019-05-18T14:49:42.595Z,58.80
2019-05-18T14:52:14.462Z,58.80
2019-05-18T14:54:43.181Z,58.90
2019-05-18T14:57:11.788Z,59.40
2019-05-18T14:59:40.283Z,59.60
2019-05-18T15:02:08.799Z,59.30
2019-05-18T15:04:37.379Z,58.90
2019-05-18T15:07:05.930Z,58.30
2019-05-18T15:09:34.528Z,58.40
2019-05-18T15:12:03.105Z,58.60
2019-05-18T15:14:31.749Z,59.10
2019-05-18T15:17:00.281Z,59.30
2019-05-18T15:19:28.854Z,59.20
2019-05-18T15:21:57.450Z,59.50
2019-05-18T15:24:25.976Z,59.50
2019-05-18T15:26:54.503Z,59.60
2019-05-18T15:29:23.075Z,59.30
2019-05-18T15:31:51.599Z,59.10
2019-05-18T15:34:20.224Z,59.60
2019-05-18T15:36:48.784Z,59.20
2019-05-18T15:39:17.322Z,59.70
2019-05-18T15:41:45.930Z,59.90
2019-05-18T15:44:14.440Z,59.70
2019-05-18T15:46:43.051Z,60.40
2019-05-18T15:49:13.578Z,61.20
2019-05-18T15:51:44.647Z,61.60
2019-05-18T15:54:13.231Z,61.70
2019-05-18T15:56:44.189Z,63.00
2019-05-18T15:59:13.242Z,63.50
2019-05-18T16:01:41.771Z,63.30
2019-05-18T16:04:10.357Z,62.90
2019-05-18T16:06:38.969Z,62.20
2019-05-18T16:09:07.626Z,61.80
2019-05-18T16:11:37.739Z,60.90
2019-05-18T16:14:14.813Z,61.00
2019-05-18T16:16:43.324Z,60.00
2019-05-18T16:19:14.859Z,59.50
2019-05-18T16:21:43.386Z,59.40
2019-05-18T16:24:11.904Z,59.40
2019-05-18T16:26:40.558Z,61.90
2019-05-18T16:29:09.181Z,64.80
2019-05-18T16:31:37.825Z,67.10
2019-05-18T16:34:07.689Z,69.90
2019-05-18T16:36:36.237Z,72.60
2019-05-18T16:39:07.522Z,76.90
2019-05-18T16:41:36.241Z,79.40
2019-05-18T16:44:07.135Z,79.40
2019-05-18T16:46:39.976Z,79.40
2019-05-18T16:49:09.977Z,80.20
2019-05-18T16:51:38.459Z,80.20
2019-05-18T16:54:07.027Z,79.30
2019-05-18T16:56:35.622Z,78.80
2019-05-18T16:59:04.229Z,80.20
2019-05-18T17:01:32.788Z,78.90
2019-05-18T17:04:01.237Z,77.90
2019-05-18T17:06:29.839Z,78.60
2019-05-18T17:08:58.388Z,78.10
2019-05-18T17:11:26.950Z,78.00
2019-05-18T17:13:55.499Z,78.70
2019-05-18T17:16:24.091Z,77.50
2019-05-18T17:18:52.625Z,77.30
2019-05-18T17:21:21.187Z,78.00
2019-05-18T17:23:49.778Z,78.00
2019-05-18T17:26:18.316Z,77.70
2019-05-18T17:28:46.901Z,77.70
2019-05-18T17:31:15.443Z,78.50
2019-05-18T17:33:43.938Z,78.30
2019-05-18T17:36:12.472Z,78.00
2019-05-18T17:38:41.078Z,78.90
2019-05-18T17:41:09.676Z,77.80
2019-05-18T17:43:38.266Z,78.60
2019-05-18T17:46:06.751Z,78.90
2019-05-18T17:48:35.341Z,78.40
2019-05-18T17:51:03.945Z,79.30
2019-05-18T17:53:32.393Z,79.00
2019-05-18T17:56:00.884Z,79.10
2019-05-18T17:58:29.368Z,80.00
2019-05-18T18:00:57.838Z,79.30
2019-05-18T18:03:26.374Z,79.10
2019-05-18T18:05:54.979Z,79.50
2019-05-18T18:08:23.465Z,79.40
2019-05-18T18:10:51.941Z,80.40
2019-05-18T18:13:20.641Z,80.50
2019-05-18T18:15:49.120Z,80.80
2019-05-18T18:18:17.584Z,81.30
2019-05-18T18:20:46.080Z,80.80
2019-05-18T18:23:14.694Z,81.60
2019-05-18T18:25:43.203Z,82.60
2019-05-18T18:28:11.684Z,83.20
2019-05-18T18:30:40.248Z,83.40
2019-05-18T18:33:08.715Z,84.10
2019-05-18T18:35:39.568Z,84.30
2019-05-18T18:38:07.391Z,84.80
2019-05-18T18:40:35.881Z,85.30
2019-05-18T18:43:04.359Z,85.60
2019-05-18T18:45:32.899Z,86.10
2019-05-18T18:48:01.424Z,86.50
2019-05-18T18:50:29.933Z,87.00
2019-05-18T18:52:59.452Z,87.20
2019-05-18T18:55:28.108Z,87.60
2019-05-18T18:57:56.576Z,88.30
2019-05-18T19:00:25.054Z,88.30
2019-05-18T19:02:53.606Z,88.70
2019-05-18T19:05:22.117Z,89.00
2019-05-18T19:07:50.666Z,89.00
2019-05-18T19:10:19.425Z,89.30
2019-05-18T19:12:47.932Z,89.60
2019-05-18T19:15:17.220Z,89.60
2019-05-18T19:17:45.874Z,89.80
2019-05-18T19:20:15.814Z,89.90
2019-05-18T19:22:44.324Z,90.10
2019-05-18T19:25:13.393Z,90.00
2019-05-18T19:27:54.098Z,90.10
2019-05-18T19:30:16.164Z,90.10
2019-05-18T19:32:45.047Z,90.20
2019-05-18T19:35:13.835Z,90.20
2019-05-18T19:37:42.343Z,90.40
2019-05-18T19:40:11.175Z,90.80
2019-05-18T19:42:39.701Z,90.50
2019-05-18T19:45:10.481Z,90.50
2019-05-18T19:47:39.021Z,90.70
2019-05-18T19:50:07.848Z,91.00
2019-05-18T19:52:36.453Z,90.90
2019-05-18T19:55:06.398Z,90.90
2019-05-18T19:57:34.936Z,91.00
2019-05-18T20:00:07.766Z,91.00
2019-05-18T20:02:36.391Z,91.20
2019-05-18T20:05:08.940Z,91.20
2019-05-18T20:07:37.671Z,91.10
2019-05-18T20:10:08.270Z,91.20
2019-05-18T20:12:36.818Z,91.40
2019-05-18T20:15:09.338Z,91.50
2019-05-18T20:17:39.882Z,91.70
2019-05-18T20:20:08.631Z,92.00
2019-05-18T20:22:37.162Z,92.10
2019-05-18T20:25:06.779Z,92.30
2019-05-18T20:27:35.575Z,92.40
2019-05-18T20:30:05.930Z,92.20
2019-05-18T20:32:34.526Z,92.40
2019-05-18T20:35:03.050Z,92.60
2019-05-18T20:37:31.895Z,92.70
2019-05-18T20:40:00.531Z,92.70
2019-05-18T20:42:29.559Z,92.70
2019-05-18T20:44:58.076Z,93.00
2019-05-18T20:47:26.586Z,93.10
2019-05-18T20:49:55.302Z,93.10
2019-05-18T20:52:23.870Z,93.10
2019-05-18T20:54:52.387Z,93.10
2019-05-18T20:57:20.850Z,93.30
2019-05-18T20:59:49.501Z,93.10
2019-05-18T21:02:18.019Z,93.20
2019-05-18T21:04:46.517Z,93.30
2019-05-18T21:07:14.966Z,93.40
2019-05-18T21:09:43.478Z,93.30
2019-05-18T21:12:12.023Z,93.40
2019-05-18T21:14:40.583Z,93.40
2019-05-18T21:17:09.182Z,93.60
2019-05-18T21:19:37.669Z,93.70
2019-05-18T21:22:06.196Z,93.70
2019-05-18T21:24:34.733Z,93.90
2019-05-18T21:27:03.256Z,93.80
2019-05-18T21:29:31.782Z,93.70
2019-05-18T21:32:00.371Z,93.60
2019-05-18T21:34:28.882Z,94.00
2019-05-18T21:36:57.591Z,93.60
2019-05-18T21:39:26.197Z,93.70
2019-05-18T21:41:54.662Z,93.90
2019-05-18T21:44:23.119Z,94.00
2019-05-18T21:46:51.653Z,93.90
2019-05-18T21:49:20.229Z,93.70
2019-05-18T21:51:48.807Z,93.80
2019-05-18T21:54:17.282Z,93.80
2019-05-18T21:56:45.739Z,93.80
2019-05-18T21:59:16.910Z,93.90
2019-05-18T22:01:45.486Z,93.80
2019-05-18T22:04:14.004Z,93.90
2019-05-18T22:06:44.014Z,93.60
2019-05-18T22:09:12.788Z,93.90
2019-05-18T22:11:44.623Z,94.10
2019-05-18T22:14:17.843Z,93.80
2019-05-18T22:16:52.636Z,94.00
2019-05-18T22:19:20.874Z,93.90
2019-05-18T22:21:50.151Z,94.20
2019-05-18T22:24:18.669Z,94.30
2019-05-18T22:26:47.173Z,94.40
2019-05-18T22:29:15.633Z,94.60
2019-05-18T22:31:48.452Z,94.40
2019-05-18T22:34:16.952Z,94.60
2019-05-18T22:36:45.419Z,94.60
2019-05-18T22:39:13.870Z,94.70
2019-05-18T22:41:42.326Z,94.60
2019-05-18T22:44:11.443Z,94.70
2019-05-18T22:46:39.959Z,94.60
2019-05-18T22:49:08.423Z,94.60
2019-05-18T22:51:36.903Z,94.70
2019-05-18T22:54:05.474Z,94.70
2019-05-18T22:56:39.719Z,94.90
2019-05-18T22:59:08.191Z,95.00
2019-05-18T23:01:36.703Z,95.00
2019-05-18T23:04:05.154Z,94.90
2019-05-18T23:06:33.663Z,95.00
2019-05-18T23:09:02.165Z,95.00
2019-05-18T23:11:30.635Z,94.90
2019-05-18T23:13:59.099Z,94.70
2019-05-18T23:16:27.557Z,94.80
2019-05-18T23:18:57.327Z,94.70
2019-05-18T23:21:25.965Z,94.70
2019-05-18T23:23:56.012Z,94.90
2019-05-18T23:26:24.528Z,94.90
2019-05-18T23:28:53.508Z,95.00
2019-05-18T23:31:22.045Z,94.90
2019-05-18T23:33:50.533Z,94.60
2019-05-18T23:36:19.055Z,95.20
2019-05-18T23:38:47.581Z,94.70
2019-05-18T23:41:16.120Z,94.70
2019-05-18T23:43:44.667Z,94.90
2019-05-18T23:46:13.187Z,94.90
2019-05-18T23:48:41.668Z,95.20
2019-05-18T23:51:10.232Z,94.90
2019-05-18T23:53:38.773Z,95.20
2019-05-18T23:56:07.215Z,95.60
2019-05-18T23:58:35.753Z,95.00
